Terminal Aerodrome Forecast
Issued by NWS

Home | Current Version | Previous Version | Text Only | Print | Product List | Glossary On
Versions: 1 2 3 4 5 6 7 8 9 10 11 12 13 14 15 16 17 18 19 20
000
FTUS43 KDLH 261140
TAFHIB
TAF
KHIB 261140Z 2612/2712 31009KT P6SM SKC
     FM261600 33010G20KT P6SM VCSH BKN060
     FM270100 28004KT P6SM SKC=

USA.gov is the U.S. government's official web portal to all federal, state and local government web resources and services.